Nearby METAR Reports

 

LBGO - Gorna Oryahovista, Bulgaria
Distance from station: NE 50km
Updated: 23/02/2018 03:30
Overcast
Overcast
 Wind from E
Wind: E 6 km/h
Temperature: 2°C
Dew Point: 1°C
Humidity: 93%
Barometer: 1017 hPa
Clouds: Overcast
Visibility: 10 km
Cloud details: Partly cloudy 274 m
Overcast 335 m
2018/02/23 01:30 LBGO 230130Z AUTO 08003KT 9999 SCT009/// OVC011/// 02/01 Q1017